Seymour Johnson Air Force Base
KGSB : rendu visible

Aérodrome :











RETROUVEZ-NOUS SUR...

 
LOGIN :

S'inscrire | Disclaimer

   EN    FR    IT 

 









Légende :    VFR   VFR Marginal   IFR   IFR Intensif   IFR Très Intensif
Visi : 
Plafond : 
>= 8 km
>= 3000ft
5 à 8 km
1000 à 3000 ft
1500m à 5 km
500 à 1000 ft
800 à 1500m
200 à 500 ft
< 800m
< 200 ft
Symboles :   Orages  Brouillard  Fortes neiges  Fortes précipitations  Vent > 20 kt






- Altitude de l'aérodrome : 109 ft


KGSB - Seymour Johnson Air Force Base

DERNIER METAR :
  • 311956Z AUTO 01006KT 10SM CLR 24/10 A3007 RMK AO2 SLP185 T02430102 $

METARs EXPIRÉS :
  • 311856Z AUTO 05006KT 10SM SCT070 SCT180 24/10 A3009 RMK AO2 SLP192 T02380097 $
  • 311756Z AUTO 05009KT 10SM SCT100 SCT150 BKN190 BKN210 23/09 A3010 RMK AO2 SLP195 T02330089 10240 20201 58000 $

TAF TAF KGSB
Valide du 31 à 20h jusqu'au 02 à 02h UTC


312000Z 3120/0202 03009KT 9999 SCT050 QNH3007INS
BECMG 0102/0103 VRB03KT 9999 FEW050 QNH3013INS
BECMG 0111/0112 01010G15KT 9999 SCT050 QNH3024INS TX25/3121Z TN12/0110Z LAST NO AMDS AFT 3120 NEXT 0104
FIR KZDC / Amérique du Nord



MET'MAP, la Météo Aéronautique d'un coup d'oeil ! - Copyright ORBIFLY Décembre 2007 - Disclaimer

ORBIFLY MET'MAP TEAM :

Programmation & Développement : Alexandra Zaïnal
Sur une idée originale de : Baudouin d'Aumeries
Assistance à la programmation : Marc-Olivier Méhu
Soutien technique & logistique : Manuel Goepfert

Contact : metmap@orbifly.com




SOURCES & CREDITS :

   NOAA       Earth
Advisory